createdAt,value
2022-10-19T00:01:21.563Z,101703.89
2022-10-19T00:03:53.023Z,101699.46
2022-10-19T00:06:30.210Z,101701.31
2022-10-19T00:09:01.413Z,101706.89
2022-10-19T00:11:30.504Z,101708.21
2022-10-19T00:13:59.600Z,101706.58
2022-10-19T00:16:31.128Z,101708.89
2022-10-19T00:19:00.957Z,101710.27
2022-10-19T00:21:29.892Z,101712.80
2022-10-19T00:23:57.896Z,101719.27
2022-10-19T00:26:26.083Z,101717.60
2022-10-19T00:28:55.592Z,101722.20
2022-10-19T00:31:24.177Z,101722.23
2022-10-19T00:33:52.970Z,101721.89
2022-10-19T00:36:24.799Z,101722.06
2022-10-19T00:38:53.714Z,101720.14
2022-10-19T00:41:23.998Z,101714.52
2022-10-19T00:48:30.402Z,101711.88
2022-10-19T00:51:27.867Z,101710.33
2022-10-19T00:53:55.645Z,101711.55
2022-10-19T00:56:23.017Z,101709.21
2022-10-19T00:58:49.585Z,101710.36
2022-10-19T01:01:19.616Z,101715.72
2022-10-19T01:03:46.204Z,101714.66
2022-10-19T01:06:16.699Z,101717.96
2022-10-19T01:08:43.609Z,101712.63
2022-10-19T01:11:26.272Z,101712.48
2022-10-19T01:14:20.706Z,101712.41
2022-10-19T01:17:32.167Z,101712.06
2022-10-19T01:20:28.803Z,101708.20
2022-10-19T01:23:18.023Z,101699.86
2022-10-19T01:26:01.976Z,101698.21
2022-10-19T01:29:07.970Z,101694.89
2022-10-19T01:31:43.764Z,101694.67
2022-10-19T01:34:21.132Z,101694.23
2022-10-19T01:36:54.224Z,101686.86
2022-10-19T01:39:44.293Z,101690.77
2022-10-19T01:42:32.589Z,101689.96
2022-10-19T01:45:05.194Z,101693.90
2022-10-19T01:47:52.699Z,101692.59
2022-10-19T01:50:26.520Z,101688.54
2022-10-19T01:52:55.100Z,101690.29
2022-10-19T01:55:25.863Z,101686.95
2022-10-19T01:58:01.678Z,101690.98
2022-10-19T02:00:30.600Z,101691.75
2022-10-19T02:02:59.916Z,101687.57
2022-10-19T02:05:33.828Z,101683.05
2022-10-19T02:08:13.080Z,101681.28
2022-10-19T02:10:43.426Z,101679.69
2022-10-19T02:13:12.580Z,101677.20
2022-10-19T02:15:43.209Z,101677.95
2022-10-19T02:18:14.683Z,101679.06
2022-10-19T02:20:41.241Z,101676.63
2022-10-19T02:23:08.202Z,101676.70
2022-10-19T02:25:35.537Z,101677.81
2022-10-19T02:28:03.214Z,101677.40
2022-10-19T02:30:29.715Z,101679.33
2022-10-19T02:32:56.355Z,101672.60
2022-10-19T02:35:22.930Z,101678.95
2022-10-19T02:37:49.473Z,101673.26
2022-10-19T02:40:18.361Z,101674.84
2022-10-19T02:42:53.473Z,101675.76
2022-10-19T02:45:27.587Z,101673.61
2022-10-19T02:48:01.672Z,101672.84
2022-10-19T02:50:28.798Z,101675.29
2022-10-19T02:52:57.761Z,101676.27
2022-10-19T02:55:24.731Z,101671.33
2022-10-19T02:57:51.276Z,101672.45
2022-10-19T03:00:17.752Z,101673.64
2022-10-19T03:02:44.234Z,101673.66
2022-10-19T03:05:10.967Z,101672.34
2022-10-19T03:07:37.758Z,101672.34
2022-10-19T03:10:04.591Z,101674.22
2022-10-19T03:12:32.021Z,101668.88
2022-10-19T03:14:58.496Z,101671.15
2022-10-19T03:17:25.035Z,101670.86
2022-10-19T03:19:51.433Z,101670.27
2022-10-19T03:22:17.890Z,101668.10
2022-10-19T03:24:44.478Z,101675.98
2022-10-19T03:27:10.967Z,101676.10
2022-10-19T03:29:37.551Z,101679.22
2022-10-19T03:32:04.425Z,101671.70
2022-10-19T03:34:33.288Z,101672.64
2022-10-19T03:36:59.698Z,101670.91
2022-10-19T03:39:26.153Z,101664.55
2022-10-19T03:41:52.765Z,101667.73
2022-10-19T03:44:19.432Z,101666.11
2022-10-19T03:46:48.367Z,101664.89
2022-10-19T04:05:19.318Z,101673.23
2022-10-19T04:07:47.357Z,101675.05
2022-10-19T04:10:15.294Z,101677.92
2022-10-19T04:12:43.307Z,101674.65
2022-10-19T04:15:11.417Z,101674.92
2022-10-19T04:17:40.169Z,101677.71
2022-10-19T04:20:09.695Z,101675.89
2022-10-19T04:22:37.718Z,101678.58
2022-10-19T04:25:06.524Z,101681.31
2022-10-19T04:27:35.581Z,101683.30
2022-10-19T04:30:04.317Z,101688.71
2022-10-19T04:32:32.562Z,101689.45
2022-10-19T04:35:01.127Z,101687.73
2022-10-19T04:37:29.089Z,101682.45
2022-10-19T04:39:57.080Z,101684.77
2022-10-19T04:42:25.699Z,101683.61
2022-10-19T04:44:53.913Z,101685.39
2022-10-19T04:47:22.788Z,101683.64
2022-10-19T04:49:50.686Z,101686.63
2022-10-19T04:52:19.185Z,101690.23
2022-10-19T04:54:47.547Z,101688.41
2022-10-19T04:57:15.430Z,101688.31
2022-10-19T04:59:43.942Z,101690.38
2022-10-19T05:02:11.768Z,101689.52
2022-10-19T05:04:43.051Z,101683.43
2022-10-19T05:07:13.160Z,101683.30
2022-10-19T05:09:41.185Z,101688.23
2022-10-19T05:12:09.036Z,101685.13
2022-10-19T05:14:39.160Z,101685.45
2022-10-19T05:17:12.791Z,101692.61
2022-10-19T05:19:40.672Z,101693.52
2022-10-19T05:22:09.540Z,101699.12
2022-10-19T05:24:37.480Z,101695.26
2022-10-19T05:27:05.502Z,101695.79
2022-10-19T05:29:34.035Z,101694.27
2022-10-19T05:32:01.955Z,101696.45
2022-10-19T05:34:29.987Z,101702.04
2022-10-19T05:36:57.928Z,101703.77
2022-10-19T05:39:26.385Z,101704.23
2022-10-19T05:41:54.339Z,101706.52
2022-10-19T05:44:24.219Z,101709.82
2022-10-19T05:46:52.413Z,101712.23
2022-10-19T05:49:23.442Z,101705.83
2022-10-19T05:51:51.385Z,101708.63
2022-10-19T05:54:22.693Z,101711.04
2022-10-19T05:56:53.535Z,101715.98
2022-10-19T05:59:21.788Z,101717.89
2022-10-19T06:01:50.248Z,101717.45
2022-10-19T06:04:18.320Z,101720.34
2022-10-19T06:06:46.276Z,101718.75
2022-10-19T06:09:14.739Z,101720.61
2022-10-19T06:11:43.670Z,101723.77
2022-10-19T06:14:14.974Z,101724.38
2022-10-19T06:16:45.892Z,101726.81
2022-10-19T06:19:14.124Z,101731.02
2022-10-19T06:21:45.823Z,101735.13
2022-10-19T06:24:14.498Z,101733.52
2022-10-19T06:26:42.854Z,101734.88
2022-10-19T06:29:11.371Z,101740.48
2022-10-19T06:31:39.443Z,101746.08
2022-10-19T06:34:08.314Z,101755.89
2022-10-19T06:36:36.728Z,101754.36
2022-10-19T06:39:05.211Z,101753.61
2022-10-19T06:41:34.352Z,101763.73
2022-10-19T06:44:16.500Z,101762.73
2022-10-19T06:46:44.416Z,101758.27
2022-10-19T06:49:13.887Z,101757.22
2022-10-19T06:51:41.817Z,101758.52
2022-10-19T06:54:09.628Z,101763.02
2022-10-19T06:56:38.925Z,101766.97
2022-10-19T06:59:09.400Z,101771.55
2022-10-19T07:01:37.337Z,101770.37
2022-10-19T07:04:05.448Z,101765.94
2022-10-19T07:06:33.390Z,101770.99
2022-10-19T07:09:02.655Z,101773.73
2022-10-19T07:11:30.853Z,101775.09
2022-10-19T07:13:59.194Z,101778.02
2022-10-19T07:16:26.920Z,101779.73
2022-10-19T07:18:55.034Z,101780.61
2022-10-19T07:21:23.609Z,101781.00
2022-10-19T07:23:51.824Z,101778.92
2022-10-19T07:26:26.988Z,101786.52
2022-10-19T07:28:57.399Z,101789.30
2022-10-19T07:31:27.449Z,101793.54
2022-10-19T07:34:00.712Z,101789.66
2022-10-19T07:36:30.750Z,101789.61
2022-10-19T07:39:01.534Z,101789.10
2022-10-19T07:41:29.500Z,101790.77
2022-10-19T07:43:58.119Z,101788.20
2022-10-19T07:46:29.344Z,101788.48
2022-10-19T07:48:57.187Z,101786.92
2022-10-19T07:51:27.020Z,101796.45
2022-10-19T07:53:54.997Z,101793.99
2022-10-19T07:56:25.360Z,101798.41
2022-10-19T07:58:55.920Z,101797.02
2022-10-19T08:01:27.278Z,101797.44
2022-10-19T08:06:45.231Z,101801.13
2022-10-19T08:09:27.719Z,101797.63
2022-10-19T08:12:02.597Z,101805.02
2022-10-19T08:14:34.568Z,101803.48
2022-10-19T08:17:03.782Z,101809.38
2022-10-19T08:19:31.787Z,101808.81
2022-10-19T08:22:03.050Z,101808.67
2022-10-19T08:24:32.639Z,101814.61
2022-10-19T08:27:02.771Z,101813.70
2022-10-19T08:29:32.112Z,101807.10
2022-10-19T08:32:00.461Z,101806.38
2022-10-19T08:34:28.738Z,101805.20
2022-10-19T08:36:57.276Z,101804.81
2022-10-19T08:39:25.651Z,101804.98
2022-10-19T08:42:08.792Z,101806.79
2022-10-19T08:44:54.202Z,101809.70
2022-10-19T08:47:55.600Z,101807.42
2022-10-19T08:50:38.495Z,101807.48
2022-10-19T08:53:11.757Z,101807.11
2022-10-19T08:55:54.771Z,101804.31
2022-10-19T08:58:40.002Z,101806.64
2022-10-19T09:01:17.183Z,101805.98
2022-10-19T09:03:55.379Z,101807.58
2022-10-19T09:06:27.342Z,101809.36
2022-10-19T09:08:57.574Z,101809.50
2022-10-19T09:11:31.819Z,101799.30
2022-10-19T09:14:13.822Z,101799.45
2022-10-19T09:16:42.841Z,101805.54
2022-10-19T09:19:25.856Z,101811.17
2022-10-19T09:22:00.790Z,101816.85
2022-10-19T09:24:36.960Z,101823.64
2022-10-19T09:27:10.908Z,101823.23
2022-10-19T09:29:47.394Z,101824.22
2022-10-19T09:32:20.612Z,101831.88
2022-10-19T09:34:54.662Z,101833.11
2022-10-19T09:37:26.652Z,101829.23
2022-10-19T09:39:56.261Z,101837.54
2022-10-19T09:42:33.260Z,101852.34
2022-10-19T09:45:26.050Z,101844.20
2022-10-19T09:47:53.812Z,101847.09
2022-10-19T09:50:29.726Z,101842.90
2022-10-19T09:53:05.981Z,101846.55
2022-10-19T09:55:41.380Z,101850.10
2022-10-19T09:58:15.561Z,101845.87
2022-10-19T10:00:50.685Z,101850.43
2022-10-19T10:03:26.185Z,101853.27
2022-10-19T10:05:58.240Z,101855.71
2022-10-19T10:08:29.841Z,101852.14
2022-10-19T10:11:39.822Z,101848.86
2022-10-19T10:14:25.437Z,101851.57
2022-10-19T10:17:01.447Z,101849.75
2022-10-19T10:19:32.185Z,101847.79
2022-10-19T10:22:02.995Z,101853.69
2022-10-19T10:24:34.356Z,101856.60
2022-10-19T10:27:06.526Z,101854.05
2022-10-19T10:29:39.290Z,101852.53
2022-10-19T10:32:19.512Z,101855.75
2022-10-19T10:35:01.026Z,101855.09
2022-10-19T10:37:37.834Z,101851.53
2022-10-19T10:40:17.869Z,101851.82
2022-10-19T10:42:50.664Z,101854.19
2022-10-19T10:45:32.473Z,101850.98
2022-10-19T10:48:15.138Z,101852.14
2022-10-19T10:50:44.079Z,101853.80
2022-10-19T10:53:39.166Z,101856.45
2022-10-19T10:56:22.717Z,101854.06
2022-10-19T10:59:02.137Z,101855.45
2022-10-19T11:01:35.510Z,101854.71
2022-10-19T11:04:12.847Z,101851.57
2022-10-19T11:06:51.705Z,101861.35
2022-10-19T11:09:38.570Z,101862.17
2022-10-19T11:12:12.922Z,101861.93
2022-10-19T11:14:46.855Z,101858.61
2022-10-19T11:17:22.826Z,101859.53
2022-10-19T11:19:51.881Z,101862.42
2022-10-19T11:22:29.740Z,101863.05
2022-10-19T11:25:22.500Z,101870.88
2022-10-19T11:28:04.812Z,101888.16
2022-10-19T11:30:49.870Z,101906.41
2022-10-19T11:33:39.721Z,101917.44
2022-10-19T11:36:33.872Z,101914.85
2022-10-19T11:39:23.873Z,101906.50
2022-10-19T11:42:04.151Z,101914.84
2022-10-19T11:44:35.449Z,101914.73
2022-10-19T11:47:33.590Z,101904.64
2022-10-19T11:50:31.168Z,101903.76
2022-10-19T11:53:31.032Z,101903.06
2022-10-19T11:56:09.106Z,101897.20
2022-10-19T11:58:55.637Z,101892.70
2022-10-19T12:01:53.939Z,101889.38
2022-10-19T12:04:40.457Z,101880.19
2022-10-19T12:07:15.036Z,101878.70
2022-10-19T12:09:54.344Z,101875.04
2022-10-19T12:12:45.908Z,101876.83
2022-10-19T12:15:35.386Z,101873.73
2022-10-19T12:18:38.971Z,101871.09
2022-10-19T12:21:19.159Z,101878.15
2022-10-19T12:23:48.993Z,101882.43
2022-10-19T12:26:20.556Z,101876.45
2022-10-19T12:29:02.725Z,101874.75
2022-10-19T12:31:31.983Z,101871.73
2022-10-19T12:34:31.133Z,101875.16
2022-10-19T12:37:08.168Z,101882.17
2022-10-19T12:40:05.100Z,101883.77
2022-10-19T12:42:51.809Z,101886.11
2022-10-19T12:45:32.221Z,101884.39
2022-10-19T12:48:13.137Z,101879.67
2022-10-19T12:50:50.595Z,101879.36
2022-10-19T12:53:31.233Z,101882.16
2022-10-19T12:56:05.296Z,101879.52
2022-10-19T12:58:46.691Z,101877.97
2022-10-19T13:01:19.859Z,101878.52
2022-10-19T13:03:52.638Z,101881.80
2022-10-19T13:06:24.080Z,101880.55
2022-10-19T13:09:03.575Z,101880.09
2022-10-19T13:11:33.067Z,101874.06
2022-10-19T13:14:06.558Z,101871.66
2022-10-19T13:16:37.682Z,101874.95
2022-10-19T13:19:14.827Z,101870.93
2022-10-19T13:21:49.980Z,101868.27
2022-10-19T13:24:24.265Z,101870.56
2022-10-19T13:27:04.456Z,101870.59
2022-10-19T13:29:39.191Z,101870.25
2022-10-19T13:32:31.162Z,101872.98
2022-10-19T13:35:34.695Z,101871.77
2022-10-19T13:38:21.642Z,101876.69
2022-10-19T13:40:49.958Z,101879.77
2022-10-19T13:43:38.861Z,101881.33
2022-10-19T13:46:17.161Z,101883.77
2022-10-19T13:48:57.306Z,101891.26
2022-10-19T13:52:10.186Z,101891.34
2022-10-19T13:54:53.024Z,101894.70
2022-10-19T13:57:57.058Z,101895.73
2022-10-19T14:00:38.540Z,101894.90
2022-10-19T14:03:35.307Z,101894.92
2022-10-19T14:06:09.248Z,101897.19
2022-10-19T14:08:41.270Z,101895.09
2022-10-19T14:11:15.433Z,101889.61
2022-10-19T14:13:44.129Z,101890.46
2022-10-19T14:16:21.504Z,101891.67
2022-10-19T14:18:58.873Z,101891.77
2022-10-19T14:21:34.592Z,101892.25
2022-10-19T14:24:03.390Z,101895.05
2022-10-19T14:26:32.332Z,101897.31
2022-10-19T14:29:00.892Z,101897.02
2022-10-19T14:31:35.515Z,101899.67
2022-10-19T14:34:08.019Z,101896.47
2022-10-19T14:36:49.662Z,101898.04
2022-10-19T14:39:57.110Z,101896.81
2022-10-19T14:42:44.343Z,101897.27
2022-10-19T14:45:14.662Z,101898.71
2022-10-19T14:47:59.264Z,101902.16
2022-10-19T14:50:45.138Z,101906.29
2022-10-19T14:53:36.497Z,101904.37
2022-10-19T14:56:22.183Z,101903.23
2022-10-19T14:59:03.534Z,101904.29
2022-10-19T15:01:35.149Z,101903.84
2022-10-19T15:04:03.850Z,101907.19
2022-10-19T15:06:36.271Z,101906.45
2022-10-19T15:09:12.189Z,101905.73
2022-10-19T15:11:50.038Z,101903.17
2022-10-19T15:14:22.885Z,101909.73
2022-10-19T15:17:06.324Z,101909.45
2022-10-19T15:19:42.060Z,101907.98
2022-10-19T15:22:18.988Z,101908.47
2022-10-19T15:24:59.808Z,101905.23
2022-10-19T15:27:37.190Z,101907.92
2022-10-19T15:30:06.178Z,101909.73
2022-10-19T15:32:39.293Z,101918.46
2022-10-19T15:35:22.721Z,101916.81
2022-10-19T15:38:00.190Z,101915.77
2022-10-19T15:40:41.236Z,101924.19
2022-10-19T15:43:35.156Z,101929.21
2022-10-19T15:46:23.683Z,101931.44
2022-10-19T15:48:55.457Z,101934.20
2022-10-19T15:51:27.799Z,101937.98
2022-10-19T15:53:57.437Z,101941.70
2022-10-19T15:56:35.926Z,101945.02
2022-10-19T15:59:11.207Z,101944.38
2022-10-19T16:01:42.992Z,101946.02
2022-10-19T16:04:12.829Z,101945.12
2022-10-19T16:06:45.421Z,101947.11
2022-10-19T16:09:18.208Z,101949.28
2022-10-19T16:11:56.297Z,101958.42
2022-10-19T16:14:31.970Z,101960.63
2022-10-19T16:17:04.829Z,101960.25
2022-10-19T16:19:33.292Z,101963.34
2022-10-19T16:22:06.267Z,101960.34
2022-10-19T16:24:36.172Z,101964.78
2022-10-19T16:27:09.298Z,101967.89
2022-10-19T16:29:43.248Z,101967.39
2022-10-19T16:32:14.472Z,101970.52
2022-10-19T16:34:43.053Z,101972.05
2022-10-19T16:37:12.677Z,101973.82
2022-10-19T16:39:44.771Z,101979.21
2022-10-19T16:42:19.186Z,101981.80
2022-10-19T16:44:49.300Z,101984.71
2022-10-19T16:47:21.192Z,101986.34
2022-10-19T16:49:59.452Z,101989.40
2022-10-19T16:52:34.029Z,101990.42
2022-10-19T16:55:05.072Z,101993.77
2022-10-19T16:57:33.657Z,101995.19
2022-10-19T17:00:02.825Z,101999.97
2022-10-19T17:02:33.457Z,102001.94
2022-10-19T17:05:09.276Z,102008.55
2022-10-19T17:07:42.268Z,102006.23
2022-10-19T17:10:16.250Z,102009.95
2022-10-19T17:12:48.954Z,102011.38
2022-10-19T17:15:42.031Z,102017.64
2022-10-19T17:18:14.942Z,102019.41
2022-10-19T17:20:44.319Z,102024.98
2022-10-19T17:23:15.722Z,102028.56
2022-10-19T17:25:50.961Z,102036.69
2022-10-19T17:28:22.954Z,102035.36
2022-10-19T17:30:55.624Z,102035.81
2022-10-19T17:33:30.391Z,102037.23
2022-10-19T17:36:16.359Z,102039.36
2022-10-19T17:38:46.572Z,102038.02
2022-10-19T17:41:18.977Z,102044.70
2022-10-19T17:43:49.961Z,102048.53
2022-10-19T17:46:21.682Z,102042.76
2022-10-19T17:48:52.211Z,102049.05
2022-10-19T17:51:25.383Z,102048.77
2022-10-19T17:53:58.107Z,102055.14
2022-10-19T17:56:28.037Z,102058.81
2022-10-19T17:59:03.490Z,102059.16
2022-10-19T18:01:32.410Z,102061.52
2022-10-19T18:04:02.470Z,102058.40
2022-10-19T18:06:33.915Z,102058.23
2022-10-19T18:09:06.075Z,102063.31
2022-10-19T18:11:41.656Z,102060.98
2022-10-19T18:14:12.003Z,102066.37
2022-10-19T18:16:50.080Z,102062.00
2022-10-19T18:19:19.132Z,102065.02
2022-10-19T18:21:49.482Z,102067.27
2022-10-19T18:24:22.216Z,102065.98
2022-10-19T18:26:52.911Z,102066.63
2022-10-19T18:29:24.494Z,102065.86
2022-10-19T18:31:53.719Z,102063.96
2022-10-19T18:34:28.243Z,102065.01
2022-10-19T18:36:57.167Z,102064.89
2022-10-19T18:39:27.514Z,102066.27
2022-10-19T18:41:59.814Z,102069.31
2022-10-19T18:44:32.555Z,102076.80
2022-10-19T18:47:03.359Z,102082.30
2022-10-19T18:49:33.156Z,102081.16
2022-10-19T18:52:05.701Z,102082.70
2022-10-19T18:54:34.897Z,102083.06
2022-10-19T18:58:07.725Z,102086.63
2022-10-19T19:01:49.305Z,102089.70
2022-10-19T19:05:33.819Z,102091.28
2022-10-19T19:09:10.742Z,102096.89
2022-10-19T19:12:50.582Z,102102.17
2022-10-19T19:16:22.617Z,102109.13
2022-10-19T19:18:54.563Z,102116.40
2022-10-19T19:21:29.076Z,102111.24
2022-10-19T19:24:01.238Z,102119.60
2022-10-19T19:26:34.196Z,102117.09
2022-10-19T19:29:02.946Z,102117.81
2022-10-19T19:31:33.607Z,102119.16
2022-10-19T19:34:02.819Z,102117.45
2022-10-19T19:36:31.897Z,102122.31
2022-10-19T19:39:00.226Z,102122.30
2022-10-19T19:41:34.300Z,102124.14
2022-10-19T19:44:03.640Z,102124.61
2022-10-19T19:46:35.108Z,102119.55
2022-10-19T19:49:05.074Z,102121.35
2022-10-19T19:51:33.870Z,102117.86
2022-10-19T19:54:06.203Z,102118.42
2022-10-19T19:56:34.985Z,102121.09
2022-10-19T19:59:06.169Z,102117.34
2022-10-19T20:01:38.599Z,102123.02
2022-10-19T20:04:07.340Z,102128.84
2022-10-19T20:06:38.308Z,102128.55
2022-10-19T20:09:07.834Z,102129.83
2022-10-19T20:11:38.411Z,102127.76
2022-10-19T20:14:09.508Z,102133.98
2022-10-19T20:16:37.597Z,102128.42
2022-10-19T20:19:12.691Z,102125.08
2022-10-19T20:21:41.397Z,102130.03
2022-10-19T20:24:09.998Z,102127.38
2022-10-19T20:26:39.061Z,102126.22
2022-10-19T20:29:08.126Z,102122.58
2022-10-19T20:31:41.524Z,102123.02
2022-10-19T20:34:17.693Z,102125.68
2022-10-19T20:36:48.921Z,102127.64
2022-10-19T20:39:18.273Z,102129.16
2022-10-19T20:41:46.302Z,102130.64
2022-10-19T20:44:16.694Z,102130.17
2022-10-19T20:46:45.256Z,102137.02
2022-10-19T20:49:13.810Z,102140.13
2022-10-19T20:51:42.656Z,102141.30
2022-10-19T20:54:14.856Z,102143.88
2022-10-19T20:56:42.901Z,102147.11
2022-10-19T20:59:20.634Z,102143.60
2022-10-19T21:01:50.740Z,102145.90
2022-10-19T21:04:19.229Z,102142.56
2022-10-19T21:06:50.849Z,102144.95
2022-10-19T21:09:21.462Z,102146.77
2022-10-19T21:11:51.034Z,102152.19
2022-10-19T21:14:26.988Z,102156.00
2022-10-19T21:16:58.726Z,102160.43
2022-10-19T21:19:28.601Z,102161.59
2022-10-19T21:22:02.540Z,102166.52
2022-10-19T21:24:34.059Z,102163.06
2022-10-19T21:27:09.101Z,102168.27
2022-10-19T21:29:38.087Z,102168.69
2022-10-19T21:32:06.159Z,102166.16
2022-10-19T21:34:34.307Z,102163.21
2022-10-19T21:37:02.363Z,102163.86
2022-10-19T21:39:31.733Z,102157.74
2022-10-19T21:41:59.624Z,102156.20
2022-10-19T21:44:27.698Z,102153.03
2022-10-19T21:46:55.667Z,102148.23
2022-10-19T21:49:23.500Z,102154.20
2022-10-19T21:51:55.155Z,102154.86
2022-10-19T21:54:25.107Z,102158.34
2022-10-19T21:56:53.563Z,102157.84
2022-10-19T21:59:21.409Z,102159.30
2022-10-19T22:01:49.170Z,102158.45
2022-10-19T22:04:18.584Z,102167.35
2022-10-19T22:06:47.087Z,102161.98
2022-10-19T22:09:18.445Z,102162.11
2022-10-19T22:11:48.290Z,102171.39
2022-10-19T22:14:16.843Z,102174.11
2022-10-19T22:16:44.967Z,102171.50
2022-10-19T22:19:13.838Z,102171.98
2022-10-19T22:21:41.874Z,102175.72
2022-10-19T22:24:14.002Z,102174.74
2022-10-19T22:26:48.044Z,102176.27
2022-10-19T22:29:16.032Z,102176.33
2022-10-19T22:31:43.983Z,102177.91
2022-10-19T22:34:15.089Z,102182.30
2022-10-19T22:36:44.183Z,102182.15
2022-10-19T22:39:12.950Z,102185.04
2022-10-19T22:42:38.087Z,102183.45
2022-10-19T22:46:21.695Z,102179.52
2022-10-19T22:50:04.915Z,102185.66
2022-10-19T22:52:57.693Z,102197.32
2022-10-19T22:55:26.371Z,102197.86
2022-10-19T22:57:54.368Z,102193.92
2022-10-19T23:00:24.882Z,102191.21
2022-10-19T23:02:55.233Z,102193.14
2022-10-19T23:05:23.529Z,102194.98
2022-10-19T23:07:51.406Z,102194.27
2022-10-19T23:10:19.392Z,102192.42
2022-10-19T23:12:54.399Z,102192.27
2022-10-19T23:15:22.188Z,102185.64
2022-10-19T23:17:50.130Z,102182.02
2022-10-19T23:20:18.187Z,102188.05
2022-10-19T23:22:46.417Z,102183.46
2022-10-19T23:25:15.438Z,102194.42
2022-10-19T23:27:43.880Z,102198.98
2022-10-19T23:30:11.968Z,102198.27
2022-10-19T23:32:40.021Z,102197.98
2022-10-19T23:35:08.538Z,102197.60
2022-10-19T23:37:37.085Z,102200.33
2022-10-19T23:40:05.589Z,102203.97
2022-10-19T23:42:34.117Z,102203.31
2022-10-19T23:45:01.915Z,102202.56
2022-10-19T23:47:32.207Z,102204.80
2022-10-19T23:50:00.497Z,102202.27
2022-10-19T23:52:30.534Z,102204.27
2022-10-19T23:54:58.573Z,102207.00
2022-10-19T23:57:26.369Z,102200.95
2022-10-19T23:59:55.164Z,102197.49
